createdAt,value
2018-03-01T00:00:27.095Z,69.30
2018-03-01T00:02:54.983Z,69.10
2018-03-01T00:05:22.480Z,69.10
2018-03-01T00:07:49.983Z,69.10
2018-03-01T00:10:17.891Z,69.00
2018-03-01T00:12:45.399Z,69.00
2018-03-01T00:15:13.746Z,69.00
2018-03-01T00:17:41.244Z,69.00
2018-03-01T00:20:08.740Z,68.80
2018-03-01T00:22:37.034Z,68.80
2018-03-01T00:25:04.510Z,69.00
2018-03-01T00:27:31.992Z,69.00
2018-03-01T00:29:59.866Z,69.50
2018-03-01T00:32:27.729Z,69.40
2018-03-01T00:34:57.333Z,69.40
2018-03-01T00:37:25.229Z,69.30
2018-03-01T00:39:52.701Z,69.30
2018-03-01T00:42:20.240Z,69.30
2018-03-01T00:44:47.760Z,69.10
2018-03-01T00:47:15.792Z,69.10
2018-03-01T00:49:43.600Z,69.10
2018-03-01T00:52:11.102Z,68.90
2018-03-01T00:54:38.577Z,68.90
2018-03-01T00:57:06.050Z,68.80
2018-03-01T00:59:33.528Z,68.90
2018-03-01T01:02:01.444Z,68.90
2018-03-01T01:04:28.980Z,68.90
2018-03-01T01:06:56.505Z,68.70
2018-03-01T01:09:24.373Z,68.70
2018-03-01T01:11:52.253Z,68.70
2018-03-01T01:14:19.778Z,68.70
2018-03-01T01:16:47.320Z,68.80
2018-03-01T01:19:14.828Z,68.90
2018-03-01T01:21:42.327Z,68.70
2018-03-01T01:24:09.804Z,69.00
2018-03-01T01:26:37.511Z,68.90
2018-03-01T01:29:05.008Z,69.00
2018-03-01T01:31:32.493Z,69.10
2018-03-01T01:34:00.408Z,69.10
2018-03-01T01:36:27.882Z,69.10
2018-03-01T01:38:55.425Z,69.20
2018-03-01T01:41:23.025Z,69.00
2018-03-01T01:43:50.627Z,69.30
2018-03-01T01:46:18.283Z,69.40
2018-03-01T01:48:45.784Z,69.50
2018-03-01T01:51:13.447Z,69.40
2018-03-01T01:53:40.929Z,69.40
2018-03-01T01:56:08.807Z,69.40
2018-03-01T01:58:36.709Z,69.40
2018-03-01T02:01:04.206Z,69.40
2018-03-01T02:03:31.689Z,69.40
2018-03-01T02:05:59.623Z,69.50
2018-03-01T02:08:27.105Z,69.50
2018-03-01T02:10:54.981Z,69.50
2018-03-01T02:13:22.848Z,69.50
2018-03-01T02:15:50.857Z,69.70
2018-03-01T02:18:18.352Z,69.70
2018-03-01T02:20:45.893Z,69.50
2018-03-01T02:23:13.451Z,69.30
2018-03-01T02:25:41.011Z,69.00
2018-03-01T02:28:08.519Z,69.20
2018-03-01T02:30:36.019Z,69.40
2018-03-01T02:33:03.525Z,69.20
2018-03-01T02:35:31.035Z,69.30
2018-03-01T02:37:58.519Z,69.30
2018-03-01T02:40:26.456Z,69.70
2018-03-01T02:42:53.944Z,69.80
2018-03-01T02:45:21.851Z,69.80
2018-03-01T02:47:49.342Z,69.80
2018-03-01T02:50:16.850Z,69.80
2018-03-01T02:52:44.428Z,69.80
2018-03-01T02:55:11.912Z,70.00
2018-03-01T02:57:39.442Z,70.10
2018-03-01T03:00:06.968Z,70.10
2018-03-01T03:02:34.876Z,69.90
2018-03-01T03:05:02.372Z,69.90
2018-03-01T03:07:29.899Z,70.20
2018-03-01T03:09:57.396Z,70.20
2018-03-01T03:12:25.278Z,70.10
2018-03-01T03:14:53.195Z,70.30
2018-03-01T03:17:20.710Z,70.30
2018-03-01T03:19:48.211Z,70.50
2018-03-01T03:22:15.704Z,70.60
2018-03-01T03:24:43.603Z,70.60
2018-03-01T03:27:11.094Z,70.50
2018-03-01T03:29:38.585Z,70.70
2018-03-01T03:32:06.475Z,70.80
2018-03-01T03:34:33.959Z,70.80
2018-03-01T03:37:01.475Z,70.50
2018-03-01T03:39:31.365Z,70.70
2018-03-01T03:41:58.879Z,70.80
2018-03-01T03:44:26.391Z,70.80
2018-03-01T03:46:54.287Z,70.70
2018-03-01T03:49:21.790Z,70.70
2018-03-01T03:51:49.285Z,70.80
2018-03-01T03:54:16.864Z,70.90
2018-03-01T03:56:44.416Z,70.80
2018-03-01T03:59:11.925Z,70.90
2018-03-01T04:01:39.472Z,70.80
2018-03-01T04:04:06.951Z,70.50
2018-03-01T04:06:34.446Z,70.70
2018-03-01T04:09:01.992Z,70.60
2018-03-01T04:11:29.532Z,70.70
2018-03-01T04:13:57.425Z,70.60
2018-03-01T04:16:24.925Z,70.60
2018-03-01T04:18:52.418Z,70.60
2018-03-01T04:21:20.297Z,70.70
2018-03-01T04:23:47.838Z,70.80
2018-03-01T04:26:15.779Z,70.90
2018-03-01T04:28:43.296Z,70.90
2018-03-01T04:31:10.925Z,70.50
2018-03-01T04:33:38.870Z,70.50
2018-03-01T04:36:06.411Z,70.60
2018-03-01T04:38:33.923Z,70.80
2018-03-01T04:41:01.459Z,71.00
2018-03-01T04:43:28.975Z,71.30
2018-03-01T04:45:56.475Z,71.00
2018-03-01T04:48:23.974Z,71.00
2018-03-01T04:50:51.497Z,70.90
2018-03-01T04:53:19.384Z,71.00
2018-03-01T04:55:46.887Z,71.00
2018-03-01T04:58:14.418Z,70.80
2018-03-01T05:00:41.908Z,70.90
2018-03-01T05:03:09.468Z,70.80
2018-03-01T05:05:36.967Z,70.70
2018-03-01T05:08:04.525Z,70.60
2018-03-01T05:10:32.032Z,70.60
2018-03-01T05:12:59.532Z,70.50
2018-03-01T05:15:27.458Z,70.40
2018-03-01T05:17:54.939Z,70.40
2018-03-01T05:20:22.429Z,70.60
2018-03-01T05:22:49.915Z,70.60
2018-03-01T05:25:17.478Z,70.60
2018-03-01T05:27:44.974Z,70.80
2018-03-01T05:30:12.872Z,70.90
2018-03-01T05:32:40.371Z,70.90
2018-03-01T05:35:07.863Z,71.00
2018-03-01T05:37:35.361Z,71.10
2018-03-01T05:40:02.882Z,70.80
2018-03-01T05:42:30.367Z,70.80
2018-03-01T05:44:57.864Z,70.90
2018-03-01T05:47:25.356Z,71.10
2018-03-01T05:49:52.927Z,71.30
2018-03-01T05:52:20.409Z,71.60
2018-03-01T05:54:47.900Z,71.40
2018-03-01T05:57:15.396Z,71.30
2018-03-01T05:59:42.896Z,71.40
2018-03-01T06:02:10.401Z,71.20
2018-03-01T06:04:37.935Z,71.10
2018-03-01T06:07:05.511Z,71.20
2018-03-01T06:09:33.117Z,71.30
2018-03-01T06:12:00.653Z,71.10
2018-03-01T06:14:28.199Z,71.00
2018-03-01T06:16:55.723Z,71.10
2018-03-01T06:19:23.212Z,71.20
2018-03-01T06:21:50.703Z,71.00
2018-03-01T06:24:18.222Z,71.00
2018-03-01T06:26:45.743Z,70.80
2018-03-01T06:29:13.223Z,70.90
2018-03-01T06:31:41.122Z,70.90
2018-03-01T06:34:08.628Z,70.90
2018-03-01T06:36:36.115Z,70.80
2018-03-01T06:39:04.003Z,70.70
2018-03-01T06:41:31.510Z,70.70
2018-03-01T06:43:58.999Z,70.50
2018-03-01T06:46:26.510Z,70.50
2018-03-01T06:48:54.012Z,70.50
2018-03-01T06:51:21.523Z,70.70
2018-03-01T06:53:49.042Z,70.80
2018-03-01T06:56:16.528Z,70.60
2018-03-01T06:58:44.023Z,70.40
2018-03-01T07:01:11.929Z,69.90
2018-03-01T07:03:39.425Z,69.90
2018-03-01T07:06:06.919Z,70.20
2018-03-01T07:08:34.422Z,70.40
2018-03-01T07:11:01.917Z,70.10
2018-03-01T07:13:29.809Z,69.90
2018-03-01T07:15:57.329Z,69.90
2018-03-01T07:18:24.830Z,69.60
2018-03-01T07:20:52.323Z,69.80
2018-03-01T07:23:19.823Z,69.50
2018-03-01T07:25:47.820Z,69.70
2018-03-01T07:28:15.312Z,69.70
2018-03-01T07:30:42.815Z,69.50
2018-03-01T07:33:10.312Z,69.50
2018-03-01T07:35:37.800Z,69.30
2018-03-01T07:38:05.316Z,69.10
2018-03-01T07:40:32.816Z,68.60
2018-03-01T07:43:00.720Z,67.70
2018-03-01T07:45:28.225Z,67.70
2018-03-01T07:47:55.744Z,66.60
2018-03-01T07:50:23.263Z,65.80
2018-03-01T07:52:51.147Z,65.00
2018-03-01T07:55:19.028Z,65.80
2018-03-01T07:57:46.532Z,65.80
2018-03-01T08:00:14.027Z,65.90
2018-03-01T08:02:41.586Z,65.90
2018-03-01T08:05:09.096Z,65.50
2018-03-01T08:07:36.585Z,65.70
2018-03-01T08:10:04.471Z,64.70
2018-03-01T08:12:33.636Z,64.70
2018-03-01T08:15:01.547Z,63.00
2018-03-01T08:17:29.112Z,63.10
2018-03-01T08:19:56.600Z,62.60
2018-03-01T08:22:24.103Z,63.10
2018-03-01T08:24:51.619Z,63.00
2018-03-01T08:27:19.147Z,63.40
2018-03-01T08:29:46.660Z,63.00
2018-03-01T08:32:14.557Z,61.60
2018-03-01T08:34:42.059Z,61.60
2018-03-01T08:37:09.560Z,61.20
2018-03-01T08:39:37.154Z,60.60
2018-03-01T08:42:04.658Z,60.20
2018-03-01T08:44:32.556Z,59.90
2018-03-01T08:47:00.061Z,59.90
2018-03-01T08:49:27.546Z,59.50
2018-03-01T08:51:55.441Z,60.10
2018-03-01T08:54:22.993Z,60.10
2018-03-01T08:56:50.492Z,59.90
2018-03-01T08:59:17.979Z,59.70
2018-03-01T09:01:45.895Z,59.10
2018-03-01T09:04:13.387Z,59.10
2018-03-01T09:06:40.878Z,58.80
2018-03-01T09:09:08.408Z,58.50
2018-03-01T09:11:35.902Z,58.80
2018-03-01T09:14:03.399Z,59.30
2018-03-01T09:16:30.894Z,58.90
2018-03-01T09:18:58.827Z,58.20
2018-03-01T09:21:26.328Z,58.20
2018-03-01T09:23:53.813Z,58.10
2018-03-01T09:26:21.317Z,57.90
2018-03-01T09:28:48.828Z,58.30
2018-03-01T09:31:16.333Z,58.40
2018-03-01T09:33:43.853Z,57.20
2018-03-01T09:36:11.354Z,57.10
2018-03-01T09:38:39.243Z,57.00
2018-03-01T09:41:06.792Z,56.90
2018-03-01T09:43:34.292Z,56.10
2018-03-01T09:46:01.795Z,56.00
2018-03-01T09:48:29.688Z,57.30
2018-03-01T09:50:57.222Z,57.30
2018-03-01T09:53:24.776Z,56.80
2018-03-01T09:55:52.302Z,56.70
2018-03-01T09:58:19.815Z,56.30
2018-03-01T10:00:47.440Z,56.00
2018-03-01T10:03:15.043Z,56.40
2018-03-01T10:05:42.651Z,56.10
2018-03-01T10:08:10.140Z,56.20
2018-03-01T10:10:37.695Z,56.20
2018-03-01T10:13:05.642Z,56.10
2018-03-01T10:15:33.146Z,56.10
2018-03-01T10:18:00.742Z,55.60
2018-03-01T10:20:28.230Z,56.00
2018-03-01T10:22:56.235Z,57.00
2018-03-01T10:25:23.734Z,57.00
2018-03-01T10:27:51.269Z,57.60
2018-03-01T10:30:18.768Z,57.00
2018-03-01T10:32:46.710Z,56.00
2018-03-01T10:35:14.280Z,56.00
2018-03-01T10:37:41.771Z,56.30
2018-03-01T10:40:09.254Z,56.20
2018-03-01T10:42:36.773Z,56.40
2018-03-01T10:45:04.660Z,56.50
2018-03-01T10:47:32.155Z,56.50
2018-03-01T10:49:59.673Z,56.00
2018-03-01T10:52:27.173Z,55.80
2018-03-01T10:54:54.660Z,56.20
2018-03-01T10:57:22.557Z,56.30
2018-03-01T10:59:50.081Z,56.40
2018-03-01T11:02:17.977Z,55.10
2018-03-01T11:04:45.451Z,55.10
2018-03-01T11:07:12.976Z,55.20
2018-03-01T11:09:40.864Z,55.60
2018-03-01T11:12:08.360Z,55.60
2018-03-01T11:14:35.860Z,55.00
2018-03-01T11:17:03.347Z,55.50
2018-03-01T11:19:30.851Z,55.70
2018-03-01T11:21:58.390Z,55.50
2018-03-01T11:24:26.012Z,54.50
2018-03-01T11:26:53.529Z,54.10
2018-03-01T11:29:21.451Z,54.60
2018-03-01T11:31:48.951Z,54.60
2018-03-01T11:34:16.843Z,55.10
2018-03-01T11:36:44.332Z,55.10
2018-03-01T11:39:11.826Z,55.60
2018-03-01T11:41:39.312Z,54.80
2018-03-01T11:44:06.807Z,54.70
2018-03-01T11:46:34.315Z,54.90
2018-03-01T11:49:02.235Z,55.60
2018-03-01T11:51:29.740Z,55.60
2018-03-01T11:53:57.616Z,56.10
2018-03-01T11:56:25.124Z,56.10
2018-03-01T11:58:52.614Z,56.10
2018-03-01T12:01:20.513Z,56.20
2018-03-01T12:03:48.008Z,56.20
2018-03-01T12:06:15.509Z,56.10
2018-03-01T12:08:43.024Z,56.10
2018-03-01T12:11:10.518Z,56.40
2018-03-01T12:13:38.039Z,56.60
2018-03-01T12:16:05.538Z,56.40
2018-03-01T12:18:33.044Z,55.60
2018-03-01T12:21:00.549Z,55.50
2018-03-01T12:23:28.484Z,55.30
2018-03-01T12:25:55.969Z,55.30
2018-03-01T12:28:23.872Z,55.20
2018-03-01T12:30:51.372Z,55.20
2018-03-01T12:33:18.877Z,54.90
2018-03-01T12:35:46.375Z,54.00
2018-03-01T12:38:13.862Z,54.00
2018-03-01T12:40:41.759Z,53.90
2018-03-01T12:43:09.264Z,53.90
2018-03-01T12:45:36.746Z,53.40
2018-03-01T12:48:04.623Z,53.30
2018-03-01T12:50:32.134Z,53.30
2018-03-01T12:52:59.643Z,53.70
2018-03-01T12:55:27.149Z,53.40
2018-03-01T12:57:54.649Z,54.10
2018-03-01T13:00:22.547Z,53.10
2018-03-01T13:02:50.032Z,53.10
2018-03-01T13:05:17.545Z,52.70
2018-03-01T13:07:45.042Z,52.60
2018-03-01T13:10:12.519Z,53.30
2018-03-01T13:12:40.016Z,52.30
2018-03-01T13:15:07.530Z,51.90
2018-03-01T13:17:35.919Z,51.90
2018-03-01T13:20:03.795Z,51.90
2018-03-01T13:22:31.688Z,51.40
2018-03-01T13:24:59.175Z,51.40
2018-03-01T13:27:26.676Z,50.60
2018-03-01T13:29:54.181Z,50.00
2018-03-01T13:32:25.667Z,50.30
2018-03-01T13:37:55.126Z,50.60
2018-03-01T13:40:22.651Z,50.60
2018-03-01T13:43:05.431Z,51.00
2018-03-01T13:45:32.932Z,51.00
2018-03-01T13:48:00.864Z,50.80
2018-03-01T13:50:29.043Z,50.70
2018-03-01T13:52:56.533Z,51.00
2018-03-01T13:55:24.052Z,51.30
2018-03-01T13:57:51.539Z,51.30
2018-03-01T14:00:19.035Z,51.00
2018-03-01T14:02:46.548Z,50.60
2018-03-01T14:05:14.076Z,50.60
2018-03-01T14:07:42.352Z,50.10
2018-03-01T14:10:09.842Z,50.00
2018-03-01T14:12:43.399Z,50.10
2018-03-01T14:15:11.827Z,50.10
2018-03-01T14:17:45.760Z,49.50
2018-03-01T14:20:18.735Z,50.00
2018-03-01T14:22:50.076Z,50.00
2018-03-01T14:25:19.233Z,50.40
2018-03-01T14:30:54.876Z,51.20
2018-03-01T14:33:22.433Z,51.50
2018-03-01T14:35:49.951Z,51.20
2018-03-01T14:38:17.436Z,51.40
2018-03-01T14:40:44.964Z,51.90
2018-03-01T14:43:12.457Z,52.00
2018-03-01T14:45:40.008Z,52.00
2018-03-01T14:48:07.490Z,52.20
2018-03-01T14:50:34.983Z,52.00
2018-03-01T14:53:02.872Z,52.10
2018-03-01T14:55:30.377Z,52.10
2018-03-01T14:57:57.877Z,52.20
2018-03-01T15:00:25.768Z,52.10
2018-03-01T15:02:53.280Z,52.10
2018-03-01T15:05:20.771Z,52.40
2018-03-01T15:07:48.278Z,52.30
2018-03-01T15:10:15.849Z,52.00
2018-03-01T15:12:43.769Z,51.90
2018-03-01T15:15:11.259Z,51.90
2018-03-01T15:17:38.886Z,52.10
2018-03-01T15:20:06.382Z,52.40
2018-03-01T15:22:33.875Z,52.40
2018-03-01T15:25:01.369Z,52.40
2018-03-01T15:27:28.893Z,53.10
2018-03-01T15:29:56.379Z,53.30
2018-03-01T15:32:23.884Z,53.90
2018-03-01T15:34:51.788Z,54.00
2018-03-01T15:37:19.291Z,54.00
2018-03-01T15:39:46.841Z,53.30
2018-03-01T15:42:14.338Z,53.40
2018-03-01T15:44:42.227Z,55.00
2018-03-01T15:47:09.731Z,55.00
2018-03-01T15:49:37.214Z,56.00
2018-03-01T15:52:05.108Z,56.70
2018-03-01T15:54:33.568Z,56.70
2018-03-01T15:57:01.051Z,56.70
2018-03-01T15:59:28.583Z,56.60
2018-03-01T16:01:56.088Z,56.90
2018-03-01T16:04:23.631Z,57.20
2018-03-01T16:06:51.121Z,57.60
2018-03-01T16:09:18.663Z,58.20
2018-03-01T16:11:46.253Z,58.10
2018-03-01T16:14:14.215Z,57.90
2018-03-01T16:16:41.717Z,57.90
2018-03-01T16:19:09.236Z,57.80
2018-03-01T16:21:36.724Z,57.90
2018-03-01T16:24:04.220Z,58.00
2018-03-01T16:26:31.732Z,58.20
2018-03-01T16:28:59.360Z,57.70
2018-03-01T16:31:26.867Z,57.20
2018-03-01T16:33:54.352Z,57.20
2018-03-01T16:36:21.867Z,57.50
2018-03-01T16:38:49.354Z,57.70
2018-03-01T16:41:16.864Z,57.70
2018-03-01T16:43:44.754Z,57.90
2018-03-01T16:46:12.248Z,57.90
2018-03-01T16:48:39.808Z,58.10
2018-03-01T16:51:07.322Z,58.10
2018-03-01T16:53:34.813Z,58.10
2018-03-01T16:56:02.308Z,58.20
2018-03-01T16:58:30.196Z,58.20
2018-03-01T17:00:57.696Z,58.20
2018-03-01T17:03:25.188Z,58.40
2018-03-01T17:05:53.097Z,58.30
2018-03-01T17:08:20.583Z,58.30
2018-03-01T17:10:48.071Z,58.50
2018-03-01T17:13:15.975Z,58.20
2018-03-01T17:15:43.468Z,58.10
2018-03-01T17:18:10.947Z,58.10
2018-03-01T17:20:38.594Z,58.40
2018-03-01T17:23:06.095Z,58.70
2018-03-01T17:25:33.993Z,58.30
2018-03-01T17:28:01.499Z,58.40
2018-03-01T17:30:29.387Z,58.90
2018-03-01T17:32:57.013Z,58.90
2018-03-01T17:35:24.524Z,59.10
2018-03-01T17:37:52.036Z,58.80
2018-03-01T17:40:19.952Z,59.00
2018-03-01T17:42:47.443Z,59.00
2018-03-01T17:45:15.054Z,59.30
2018-03-01T17:47:42.572Z,59.30
2018-03-01T17:50:10.462Z,59.30
2018-03-01T17:52:37.987Z,59.30
2018-03-01T17:55:05.480Z,59.20
2018-03-01T17:57:33.042Z,59.00
2018-03-01T18:00:00.565Z,59.20
2018-03-01T18:02:28.083Z,59.20
2018-03-01T18:04:55.813Z,59.60
2018-03-01T18:07:23.782Z,59.20
2018-03-01T18:09:51.377Z,59.40
2018-03-01T18:12:18.930Z,59.50
2018-03-01T18:14:46.491Z,59.30
2018-03-01T18:17:14.041Z,59.40
2018-03-01T18:19:41.554Z,59.70
2018-03-01T18:22:09.459Z,59.60
2018-03-01T18:24:36.963Z,59.60
2018-03-01T18:27:04.860Z,59.70
2018-03-01T18:29:32.788Z,59.80
2018-03-01T18:32:00.324Z,59.80
2018-03-01T18:34:27.820Z,60.10
2018-03-01T18:36:55.347Z,59.90
2018-03-01T18:39:22.941Z,59.80
2018-03-01T18:41:50.823Z,59.60
2018-03-01T18:44:18.314Z,59.60
2018-03-01T18:46:45.816Z,59.40
2018-03-01T18:49:13.707Z,59.50
2018-03-01T18:51:41.215Z,59.50
2018-03-01T18:54:08.707Z,59.40
2018-03-01T18:56:37.566Z,59.60
2018-03-01T18:59:05.058Z,59.60
2018-03-01T19:01:32.959Z,59.40
2018-03-01T19:04:00.457Z,59.40
2018-03-01T19:06:27.959Z,59.20
2018-03-01T19:08:55.465Z,59.40
2018-03-01T19:11:23.196Z,59.30
2018-03-01T19:13:50.708Z,59.50
2018-03-01T19:16:18.584Z,59.90
2018-03-01T19:18:46.474Z,60.00
2018-03-01T19:21:13.988Z,60.00
2018-03-01T19:23:41.492Z,60.00
2018-03-01T19:26:08.997Z,60.20
2018-03-01T19:28:36.491Z,60.30
2018-03-01T19:31:03.991Z,60.30
2018-03-01T19:33:31.503Z,60.30
2018-03-01T19:35:59.008Z,60.40
2018-03-01T19:38:26.496Z,60.70
2018-03-01T19:40:54.001Z,60.90
2018-03-01T19:43:21.487Z,61.00
2018-03-01T19:45:48.988Z,61.00
2018-03-01T19:48:16.482Z,61.10
2018-03-01T19:50:44.015Z,61.10
2018-03-01T19:53:20.629Z,61.20
2018-03-01T19:55:48.139Z,61.10
2018-03-01T19:58:15.660Z,61.00
2018-03-01T20:00:43.184Z,61.40
2018-03-01T20:03:13.765Z,61.50
2018-03-01T20:05:41.302Z,61.60
2018-03-01T20:08:08.823Z,61.80
2018-03-01T20:10:36.334Z,61.80
2018-03-01T20:13:04.215Z,62.00
2018-03-01T20:15:31.743Z,62.00
2018-03-01T20:17:59.244Z,62.00
2018-03-01T20:20:26.731Z,62.10
2018-03-01T20:22:54.228Z,61.90
2018-03-01T20:25:22.129Z,62.20
2018-03-01T20:27:49.623Z,62.20
2018-03-01T20:30:17.182Z,62.20
2018-03-01T20:32:44.674Z,62.30
2018-03-01T20:35:12.579Z,62.60
2018-03-01T20:37:40.077Z,62.60
2018-03-01T20:40:07.571Z,62.30
2018-03-01T20:42:35.116Z,62.70
2018-03-01T20:45:03.055Z,62.30
2018-03-01T20:47:30.559Z,62.40
2018-03-01T20:49:58.060Z,62.60
2018-03-01T20:52:25.599Z,62.90
2018-03-01T20:54:53.099Z,62.80
2018-03-01T20:57:20.645Z,62.60
2018-03-01T20:59:48.168Z,62.80
2018-03-01T21:02:15.674Z,63.00
2018-03-01T21:04:43.156Z,62.70
2018-03-01T21:07:12.617Z,62.90
2018-03-01T21:09:40.122Z,62.90
2018-03-01T21:12:07.703Z,62.80
2018-03-01T21:14:35.352Z,63.00
2018-03-01T21:17:02.847Z,63.30
2018-03-01T21:19:30.348Z,63.20
2018-03-01T21:21:57.872Z,63.20
2018-03-01T21:24:25.363Z,63.50
2018-03-01T21:26:52.872Z,63.50
2018-03-01T21:29:20.359Z,63.60
2018-03-01T21:31:48.245Z,63.80
2018-03-01T21:34:15.745Z,63.80
2018-03-01T21:36:43.236Z,63.70
2018-03-01T21:39:10.763Z,63.90
2018-03-01T21:41:38.251Z,64.10
2018-03-01T21:44:06.148Z,63.90
2018-03-01T21:46:33.645Z,63.90
2018-03-01T21:49:01.128Z,64.00
2018-03-01T21:51:29.012Z,64.20
2018-03-01T21:53:56.912Z,64.20
2018-03-01T21:56:24.477Z,64.20
2018-03-01T21:58:52.072Z,64.00
2018-03-01T22:01:19.594Z,63.90
2018-03-01T22:03:47.149Z,64.10
2018-03-01T22:06:14.706Z,64.30
2018-03-01T22:08:42.227Z,64.50
2018-03-01T22:11:10.138Z,64.50
2018-03-01T22:13:38.655Z,64.50
2018-03-01T22:16:06.177Z,64.60
2018-03-01T22:18:33.716Z,64.50
2018-03-01T22:21:01.278Z,64.70
2018-03-01T22:23:28.820Z,64.70
2018-03-01T22:25:56.451Z,64.70
2018-03-01T22:28:24.355Z,64.90
2018-03-01T22:30:51.846Z,64.90
2018-03-01T22:33:19.352Z,65.00
2018-03-01T22:35:46.847Z,65.00
2018-03-01T22:38:14.381Z,65.30
2018-03-01T22:40:41.912Z,65.50
2018-03-01T22:43:09.794Z,65.30
2018-03-01T22:45:37.283Z,65.30
2018-03-01T22:48:04.771Z,65.50
2018-03-01T22:50:32.260Z,65.60
2018-03-01T22:53:01.315Z,65.20
2018-03-01T22:55:28.872Z,65.30
2018-03-01T22:57:56.376Z,65.50
2018-03-01T23:00:35.544Z,65.70
2018-03-01T23:03:03.058Z,65.60
2018-03-01T23:05:30.569Z,65.70
2018-03-01T23:07:58.087Z,65.80
2018-03-01T23:10:26.161Z,66.10
2018-03-01T23:12:53.711Z,66.30
2018-03-01T23:15:21.238Z,66.50
2018-03-01T23:17:48.738Z,66.50
2018-03-01T23:20:16.228Z,66.50
2018-03-01T23:22:43.733Z,66.50
2018-03-01T23:25:11.227Z,66.70
2018-03-01T23:27:38.716Z,66.80
2018-03-01T23:30:06.222Z,66.90
2018-03-01T23:32:33.772Z,67.20
2018-03-01T23:35:01.292Z,67.30
2018-03-01T23:37:28.781Z,67.30
2018-03-01T23:39:56.299Z,67.20
2018-03-01T23:42:23.794Z,67.30
2018-03-01T23:44:51.412Z,67.50
2018-03-01T23:47:18.926Z,67.70
2018-03-01T23:49:46.428Z,67.70
2018-03-01T23:52:13.973Z,67.80
2018-03-01T23:54:41.479Z,68.00
2018-03-01T23:57:09.008Z,68.00
2018-03-01T23:59:36.585Z,68.10
